sensor_id;sensor_type;location;lat;lon;timestamp;P1;durP1;ratioP1;P2;durP2;ratioP2
16854;SDS011;8543;54.522;18.550;2023-04-01T00:01:01;6.40;;;4.20;;
16854;SDS011;8543;54.522;18.550;2023-04-01T00:03:28;6.90;;;4.10;;
16854;SDS011;8543;54.522;18.550;2023-04-01T00:05:55;7.50;;;4.30;;
16854;SDS011;8543;54.522;18.550;2023-04-01T00:08:21;7.90;;;4.80;;
16854;SDS011;8543;54.522;18.550;2023-04-01T00:10:47;11.60;;;5.60;;
16854;SDS011;8543;54.522;18.550;2023-04-01T00:13:13;8.10;;;5.30;;
16854;SDS011;8543;54.522;18.550;2023-04-01T00:15:40;7.40;;;4.80;;
16854;SDS011;8543;54.522;18.550;2023-04-01T00:18:06;8.30;;;5.10;;
16854;SDS011;8543;54.522;18.550;2023-04-01T00:20:31;6.80;;;4.80;;
16854;SDS011;8543;54.522;18.550;2023-04-01T00:22:57;6.20;;;4.30;;
16854;SDS011;8543;54.522;18.550;2023-04-01T00:25:23;5.70;;;4.10;;
16854;SDS011;8543;54.522;18.550;2023-04-01T00:27:48;5.40;;;4.10;;
16854;SDS011;8543;54.522;18.550;2023-04-01T00:30:14;5.60;;;3.60;;
16854;SDS011;8543;54.522;18.550;2023-04-01T00:32:40;5.80;;;3.80;;
16854;SDS011;8543;54.522;18.550;2023-04-01T00:35:05;5.10;;;3.70;;
16854;SDS011;8543;54.522;18.550;2023-04-01T00:37:33;6.50;;;4.30;;
16854;SDS011;8543;54.522;18.550;2023-04-01T00:40:00;5.60;;;3.90;;
16854;SDS011;8543;54.522;18.550;2023-04-01T00:42:25;6.20;;;4.00;;
16854;SDS011;8543;54.522;18.550;2023-04-01T00:44:51;7.20;;;3.60;;
16854;SDS011;8543;54.522;18.550;2023-04-01T00:47:18;8.20;;;4.00;;
16854;SDS011;8543;54.522;18.550;2023-04-01T00:49:45;7.60;;;4.30;;
16854;SDS011;8543;54.522;18.550;2023-04-01T00:52:13;7.90;;;4.00;;
16854;SDS011;8543;54.522;18.550;2023-04-01T00:54:44;6.50;;;3.80;;
16854;SDS011;8543;54.522;18.550;2023-04-01T00:59:48;5.50;;;3.70;;
16854;SDS011;8543;54.522;18.550;2023-04-01T01:02:17;5.30;;;3.50;;
16854;SDS011;8543;54.522;18.550;2023-04-01T01:04:43;5.60;;;4.10;;
16854;SDS011;8543;54.522;18.550;2023-04-01T01:07:31;5.90;;;4.10;;
16854;SDS011;8543;54.522;18.550;2023-04-01T01:10:18;4.90;;;3.10;;
16854;SDS011;8543;54.522;18.550;2023-04-01T01:15:44;4.50;;;3.20;;
16854;SDS011;8543;54.522;18.550;2023-04-01T01:29:41;5.50;;;3.80;;
16854;SDS011;8543;54.522;18.550;2023-04-01T01:32:27;5.80;;;3.50;;
16854;SDS011;8543;54.522;18.550;2023-04-01T01:38:01;5.70;;;3.80;;
16854;SDS011;8543;54.522;18.550;2023-04-01T01:40:29;4.40;;;3.20;;
16854;SDS011;8543;54.522;18.550;2023-04-01T01:42:58;5.70;;;2.90;;
16854;SDS011;8543;54.522;18.550;2023-04-01T01:45:28;5.20;;;3.40;;
16854;SDS011;8543;54.522;18.550;2023-04-01T01:47:54;5.30;;;3.30;;
16854;SDS011;8543;54.522;18.550;2023-04-01T01:50:21;4.50;;;3.20;;
16854;SDS011;8543;54.522;18.550;2023-04-01T01:52:46;4.90;;;3.40;;
16854;SDS011;8543;54.522;18.550;2023-04-01T01:55:23;4.80;;;3.30;;
16854;SDS011;8543;54.522;18.550;2023-04-01T01:58:01;4.90;;;3.40;;
16854;SDS011;8543;54.522;18.550;2023-04-01T02:00:30;4.80;;;3.50;;
16854;SDS011;8543;54.522;18.550;2023-04-01T02:02:56;5.60;;;3.80;;
16854;SDS011;8543;54.522;18.550;2023-04-01T02:05:23;5.60;;;3.40;;
16854;SDS011;8543;54.522;18.550;2023-04-01T02:07:52;5.10;;;3.10;;
16854;SDS011;8543;54.522;18.550;2023-04-01T02:10:23;3.90;;;2.70;;
16854;SDS011;8543;54.522;18.550;2023-04-01T02:12:50;4.00;;;2.70;;
16854;SDS011;8543;54.522;18.550;2023-04-01T02:15:16;4.80;;;3.00;;
16854;SDS011;8543;54.522;18.550;2023-04-01T02:17:43;5.10;;;3.40;;
16854;SDS011;8543;54.522;18.550;2023-04-01T02:20:20;5.50;;;3.40;;
16854;SDS011;8543;54.522;18.550;2023-04-01T02:22:49;4.60;;;3.20;;
16854;SDS011;8543;54.522;18.550;2023-04-01T02:25:18;5.50;;;3.10;;
16854;SDS011;8543;54.522;18.550;2023-04-01T02:27:49;4.10;;;3.00;;
16854;SDS011;8543;54.522;18.550;2023-04-01T02:30:15;4.70;;;3.20;;
16854;SDS011;8543;54.522;18.550;2023-04-01T02:32:41;4.50;;;2.80;;
16854;SDS011;8543;54.522;18.550;2023-04-01T02:35:11;4.30;;;2.90;;
16854;SDS011;8543;54.522;18.550;2023-04-01T02:37:38;4.40;;;3.10;;
16854;SDS011;8543;54.522;18.550;2023-04-01T02:40:07;4.10;;;2.80;;
16854;SDS011;8543;54.522;18.550;2023-04-01T02:42:34;4.50;;;3.10;;
16854;SDS011;8543;54.522;18.550;2023-04-01T02:45:00;3.90;;;2.70;;
16854;SDS011;8543;54.522;18.550;2023-04-01T02:47:25;5.40;;;3.30;;
16854;SDS011;8543;54.522;18.550;2023-04-01T02:49:51;4.10;;;2.80;;
16854;SDS011;8543;54.522;18.550;2023-04-01T02:52:22;4.40;;;2.80;;
16854;SDS011;8543;54.522;18.550;2023-04-01T02:54:49;4.10;;;2.70;;
16854;SDS011;8543;54.522;18.550;2023-04-01T02:57:14;4.40;;;2.70;;
16854;SDS011;8543;54.522;18.550;2023-04-01T02:59:40;4.30;;;2.90;;
16854;SDS011;8543;54.522;18.550;2023-04-01T03:02:05;4.90;;;3.40;;
16854;SDS011;8543;54.522;18.550;2023-04-01T03:04:32;4.50;;;3.00;;
16854;SDS011;8543;54.522;18.550;2023-04-01T03:06:57;5.40;;;3.60;;
16854;SDS011;8543;54.522;18.550;2023-04-01T03:09:23;4.50;;;3.40;;
16854;SDS011;8543;54.522;18.550;2023-04-01T03:11:48;4.90;;;3.40;;
16854;SDS011;8543;54.522;18.550;2023-04-01T03:14:13;5.40;;;3.60;;
16854;SDS011;8543;54.522;18.550;2023-04-01T03:16:39;5.20;;;3.70;;
16854;SDS011;8543;54.522;18.550;2023-04-01T03:19:04;4.80;;;3.50;;
16854;SDS011;8543;54.522;18.550;2023-04-01T03:21:30;5.10;;;3.70;;
16854;SDS011;8543;54.522;18.550;2023-04-01T03:23:56;6.10;;;4.10;;
16854;SDS011;8543;54.522;18.550;2023-04-01T03:26:21;6.30;;;4.30;;
16854;SDS011;8543;54.522;18.550;2023-04-01T03:28:47;6.80;;;4.80;;
16854;SDS011;8543;54.522;18.550;2023-04-01T03:31:13;6.70;;;4.70;;
16854;SDS011;8543;54.522;18.550;2023-04-01T03:33:41;8.00;;;5.30;;
16854;SDS011;8543;54.522;18.550;2023-04-01T03:36:06;9.80;;;4.20;;
16854;SDS011;8543;54.522;18.550;2023-04-01T03:38:33;6.80;;;4.30;;
16854;SDS011;8543;54.522;18.550;2023-04-01T03:41:00;6.00;;;3.90;;
16854;SDS011;8543;54.522;18.550;2023-04-01T03:43:26;5.80;;;4.30;;
16854;SDS011;8543;54.522;18.550;2023-04-01T03:45:52;6.70;;;4.10;;
16854;SDS011;8543;54.522;18.550;2023-04-01T03:48:18;5.60;;;4.10;;
16854;SDS011;8543;54.522;18.550;2023-04-01T03:50:43;9.30;;;4.60;;
16854;SDS011;8543;54.522;18.550;2023-04-01T03:53:09;7.30;;;5.00;;
16854;SDS011;8543;54.522;18.550;2023-04-01T03:55:35;8.30;;;4.70;;
16854;SDS011;8543;54.522;18.550;2023-04-01T03:58:01;9.20;;;5.00;;
16854;SDS011;8543;54.522;18.550;2023-04-01T04:00:28;9.50;;;4.60;;
16854;SDS011;8543;54.522;18.550;2023-04-01T04:02:54;6.90;;;4.00;;
16854;SDS011;8543;54.522;18.550;2023-04-01T04:05:22;6.40;;;3.60;;
16854;SDS011;8543;54.522;18.550;2023-04-01T04:07:48;5.40;;;3.50;;
16854;SDS011;8543;54.522;18.550;2023-04-01T04:10:14;8.60;;;4.20;;
16854;SDS011;8543;54.522;18.550;2023-04-01T04:12:40;7.20;;;4.10;;
16854;SDS011;8543;54.522;18.550;2023-04-01T04:15:06;7.50;;;4.10;;
16854;SDS011;8543;54.522;18.550;2023-04-01T04:17:31;9.10;;;4.90;;
16854;SDS011;8543;54.522;18.550;2023-04-01T04:19:57;9.30;;;5.50;;
16854;SDS011;8543;54.522;18.550;2023-04-01T04:22:22;7.20;;;4.40;;
16854;SDS011;8543;54.522;18.550;2023-04-01T04:24:48;8.90;;;4.50;;
16854;SDS011;8543;54.522;18.550;2023-04-01T04:27:13;8.10;;;4.20;;
16854;SDS011;8543;54.522;18.550;2023-04-01T04:29:39;9.50;;;4.70;;
16854;SDS011;8543;54.522;18.550;2023-04-01T04:32:04;8.50;;;4.40;;
16854;SDS011;8543;54.522;18.550;2023-04-01T04:34:31;8.30;;;4.50;;
16854;SDS011;8543;54.522;18.550;2023-04-01T04:36:56;7.30;;;4.20;;
16854;SDS011;8543;54.522;18.550;2023-04-01T04:39:21;6.90;;;4.10;;
16854;SDS011;8543;54.522;18.550;2023-04-01T04:41:47;8.70;;;4.50;;
16854;SDS011;8543;54.522;18.550;2023-04-01T04:44:12;6.80;;;3.60;;
16854;SDS011;8543;54.522;18.550;2023-04-01T04:46:38;8.10;;;4.00;;
16854;SDS011;8543;54.522;18.550;2023-04-01T04:49:04;7.40;;;4.20;;
16854;SDS011;8543;54.522;18.550;2023-04-01T04:51:30;8.00;;;3.90;;
16854;SDS011;8543;54.522;18.550;2023-04-01T04:53:59;7.80;;;4.30;;
16854;SDS011;8543;54.522;18.550;2023-04-01T04:56:25;8.00;;;4.50;;
16854;SDS011;8543;54.522;18.550;2023-04-01T04:58:51;8.00;;;4.20;;
16854;SDS011;8543;54.522;18.550;2023-04-01T05:01:17;9.00;;;4.70;;
16854;SDS011;8543;54.522;18.550;2023-04-01T05:03:43;8.60;;;4.90;;
16854;SDS011;8543;54.522;18.550;2023-04-01T05:06:11;7.20;;;4.20;;
16854;SDS011;8543;54.522;18.550;2023-04-01T05:08:37;6.80;;;3.90;;
16854;SDS011;8543;54.522;18.550;2023-04-01T05:11:06;7.70;;;4.10;;
16854;SDS011;8543;54.522;18.550;2023-04-01T05:13:34;7.90;;;4.10;;
16854;SDS011;8543;54.522;18.550;2023-04-01T05:16:00;7.50;;;4.40;;
16854;SDS011;8543;54.522;18.550;2023-04-01T05:18:25;6.50;;;4.40;;
16854;SDS011;8543;54.522;18.550;2023-04-01T05:20:51;7.60;;;4.30;;
16854;SDS011;8543;54.522;18.550;2023-04-01T05:23:18;6.70;;;4.00;;
16854;SDS011;8543;54.522;18.550;2023-04-01T05:25:46;7.50;;;4.20;;
16854;SDS011;8543;54.522;18.550;2023-04-01T05:28:16;7.30;;;4.20;;
16854;SDS011;8543;54.522;18.550;2023-04-01T05:30:42;6.20;;;3.70;;
16854;SDS011;8543;54.522;18.550;2023-04-01T05:33:08;6.70;;;3.50;;
16854;SDS011;8543;54.522;18.550;2023-04-01T05:35:34;7.60;;;4.00;;
16854;SDS011;8543;54.522;18.550;2023-04-01T05:38:00;5.10;;;3.30;;
16854;SDS011;8543;54.522;18.550;2023-04-01T05:40:27;5.80;;;3.60;;
16854;SDS011;8543;54.522;18.550;2023-04-01T05:42:53;6.60;;;3.60;;
16854;SDS011;8543;54.522;18.550;2023-04-01T05:45:18;6.00;;;3.00;;
16854;SDS011;8543;54.522;18.550;2023-04-01T05:47:44;6.10;;;3.30;;
16854;SDS011;8543;54.522;18.550;2023-04-01T05:50:09;6.10;;;3.00;;
16854;SDS011;8543;54.522;18.550;2023-04-01T05:52:36;5.30;;;3.00;;
16854;SDS011;8543;54.522;18.550;2023-04-01T05:55:02;4.50;;;2.60;;
16854;SDS011;8543;54.522;18.550;2023-04-01T05:57:27;4.00;;;2.70;;
16854;SDS011;8543;54.522;18.550;2023-04-01T05:59:53;3.70;;;2.40;;
16854;SDS011;8543;54.522;18.550;2023-04-01T06:02:18;3.60;;;2.20;;
16854;SDS011;8543;54.522;18.550;2023-04-01T06:04:44;4.90;;;2.40;;
16854;SDS011;8543;54.522;18.550;2023-04-01T06:07:13;3.30;;;2.00;;
16854;SDS011;8543;54.522;18.550;2023-04-01T06:09:40;3.00;;;2.20;;
16854;SDS011;8543;54.522;18.550;2023-04-01T06:17:56;3.50;;;2.10;;
16854;SDS011;8543;54.522;18.550;2023-04-01T06:20:52;4.50;;;2.30;;
16854;SDS011;8543;54.522;18.550;2023-04-01T06:29:08;4.70;;;2.30;;
16854;SDS011;8543;54.522;18.550;2023-04-01T06:40:03;5.90;;;2.70;;
16854;SDS011;8543;54.522;18.550;2023-04-01T06:53:54;4.60;;;2.90;;
16854;SDS011;8543;54.522;18.550;2023-04-01T06:56:25;4.40;;;2.40;;
16854;SDS011;8543;54.522;18.550;2023-04-01T06:59:15;5.40;;;2.20;;
16854;SDS011;8543;54.522;18.550;2023-04-01T07:01:44;6.30;;;2.50;;
16854;SDS011;8543;54.522;18.550;2023-04-01T07:04:15;6.20;;;2.70;;
16854;SDS011;8543;54.522;18.550;2023-04-01T07:06:52;4.60;;;2.50;;
16854;SDS011;8543;54.522;18.550;2023-04-01T07:09:20;3.80;;;2.10;;
16854;SDS011;8543;54.522;18.550;2023-04-01T07:11:49;2.40;;;1.50;;
16854;SDS011;8543;54.522;18.550;2023-04-01T07:16:48;4.40;;;2.30;;
16854;SDS011;8543;54.522;18.550;2023-04-01T07:22:06;4.20;;;2.30;;
16854;SDS011;8543;54.522;18.550;2023-04-01T07:24:44;4.60;;;2.30;;
16854;SDS011;8543;54.522;18.550;2023-04-01T07:27:11;5.90;;;2.90;;
16854;SDS011;8543;54.522;18.550;2023-04-01T07:29:38;5.90;;;2.60;;
16854;SDS011;8543;54.522;18.550;2023-04-01T07:34:55;3.40;;;1.90;;
16854;SDS011;8543;54.522;18.550;2023-04-01T07:45:31;4.90;;;2.50;;
16854;SDS011;8543;54.522;18.550;2023-04-01T07:53:36;5.00;;;2.60;;
16854;SDS011;8543;54.522;18.550;2023-04-01T07:56:05;3.60;;;2.20;;
16854;SDS011;8543;54.522;18.550;2023-04-01T08:01:10;5.50;;;2.50;;
16854;SDS011;8543;54.522;18.550;2023-04-01T08:03:53;5.10;;;2.70;;
16854;SDS011;8543;54.522;18.550;2023-04-01T08:06:32;4.40;;;2.50;;
16854;SDS011;8543;54.522;18.550;2023-04-01T08:12:32;5.60;;;2.80;;
16854;SDS011;8543;54.522;18.550;2023-04-01T08:15:26;5.80;;;2.60;;
16854;SDS011;8543;54.522;18.550;2023-04-01T08:34:26;5.40;;;2.60;;
16854;SDS011;8543;54.522;18.550;2023-04-01T08:37:14;3.90;;;2.10;;
16854;SDS011;8543;54.522;18.550;2023-04-01T08:39:48;4.30;;;2.30;;
16854;SDS011;8543;54.522;18.550;2023-04-01T08:47:34;3.30;;;1.90;;
16854;SDS011;8543;54.522;18.550;2023-04-01T09:12:14;4.80;;;2.00;;
16854;SDS011;8543;54.522;18.550;2023-04-01T09:14:48;3.70;;;1.90;;
16854;SDS011;8543;54.522;18.550;2023-04-01T09:28:44;3.80;;;1.80;;
16854;SDS011;8543;54.522;18.550;2023-04-01T09:31:20;2.90;;;1.60;;
16854;SDS011;8543;54.522;18.550;2023-04-01T09:34:04;2.30;;;1.70;;
16854;SDS011;8543;54.522;18.550;2023-04-01T09:44:36;2.40;;;1.50;;
16854;SDS011;8543;54.522;18.550;2023-04-01T10:03:49;4.40;;;1.70;;
16854;SDS011;8543;54.522;18.550;2023-04-01T10:31:25;3.00;;;1.70;;
16854;SDS011;8543;54.522;18.550;2023-04-01T10:42:42;3.70;;;1.80;;
16854;SDS011;8543;54.522;18.550;2023-04-01T11:15:38;3.90;;;1.50;;
16854;SDS011;8543;54.522;18.550;2023-04-01T11:18:23;3.80;;;1.50;;
16854;SDS011;8543;54.522;18.550;2023-04-01T11:24:00;2.90;;;1.50;;
16854;SDS011;8543;54.522;18.550;2023-04-01T11:26:44;3.50;;;1.60;;
16854;SDS011;8543;54.522;18.550;2023-04-01T11:34:42;2.80;;;1.70;;
16854;SDS011;8543;54.522;18.550;2023-04-01T11:43:15;3.20;;;2.00;;
16854;SDS011;8543;54.522;18.550;2023-04-01T11:46:17;3.10;;;1.70;;
16854;SDS011;8543;54.522;18.550;2023-04-01T11:54:33;3.40;;;1.50;;
16854;SDS011;8543;54.522;18.550;2023-04-01T11:57:05;3.70;;;1.80;;
16854;SDS011;8543;54.522;18.550;2023-04-01T12:13:35;4.00;;;1.70;;
16854;SDS011;8543;54.522;18.550;2023-04-01T12:32:53;2.90;;;1.60;;
16854;SDS011;8543;54.522;18.550;2023-04-01T12:43:17;2.30;;;1.60;;
16854;SDS011;8543;54.522;18.550;2023-04-01T12:46:08;4.20;;;1.60;;
16854;SDS011;8543;54.522;18.550;2023-04-01T12:49:11;2.70;;;1.80;;
16854;SDS011;8543;54.522;18.550;2023-04-01T12:51:48;1.90;;;1.40;;
16854;SDS011;8543;54.522;18.550;2023-04-01T13:02:30;3.20;;;1.80;;
16854;SDS011;8543;54.522;18.550;2023-04-01T13:05:14;2.30;;;1.50;;
16854;SDS011;8543;54.522;18.550;2023-04-01T13:16:29;3.30;;;1.70;;
16854;SDS011;8543;54.522;18.550;2023-04-01T13:24:37;6.00;;;2.00;;
16854;SDS011;8543;54.522;18.550;2023-04-01T13:27:20;3.70;;;1.90;;
16854;SDS011;8543;54.522;18.550;2023-04-01T13:32:21;4.50;;;1.90;;
16854;SDS011;8543;54.522;18.550;2023-04-01T13:38:08;3.50;;;1.70;;
16854;SDS011;8543;54.522;18.550;2023-04-01T13:43:42;5.10;;;2.00;;
16854;SDS011;8543;54.522;18.550;2023-04-01T13:59:40;3.70;;;2.30;;
16854;SDS011;8543;54.522;18.550;2023-04-01T14:05:04;5.60;;;2.80;;
16854;SDS011;8543;54.522;18.550;2023-04-01T14:10:18;4.00;;;2.50;;
16854;SDS011;8543;54.522;18.550;2023-04-01T14:12:56;5.00;;;2.20;;
16854;SDS011;8543;54.522;18.550;2023-04-01T14:15:25;5.40;;;2.70;;
16854;SDS011;8543;54.522;18.550;2023-04-01T14:20:41;5.60;;;3.40;;
16854;SDS011;8543;54.522;18.550;2023-04-01T14:23:13;6.60;;;3.20;;
16854;SDS011;8543;54.522;18.550;2023-04-01T14:25:55;7.50;;;3.30;;
16854;SDS011;8543;54.522;18.550;2023-04-01T14:34:29;6.40;;;2.90;;
16854;SDS011;8543;54.522;18.550;2023-04-01T14:42:48;4.90;;;3.10;;
16854;SDS011;8543;54.522;18.550;2023-04-01T14:50:51;6.30;;;3.40;;
16854;SDS011;8543;54.522;18.550;2023-04-01T14:55:51;5.50;;;3.10;;
16854;SDS011;8543;54.522;18.550;2023-04-01T14:58:19;7.50;;;3.10;;
16854;SDS011;8543;54.522;18.550;2023-04-01T15:06:40;7.10;;;3.30;;
16854;SDS011;8543;54.522;18.550;2023-04-01T15:12:16;7.40;;;3.20;;
16854;SDS011;8543;54.522;18.550;2023-04-01T15:41:15;7.20;;;3.30;;
16854;SDS011;8543;54.522;18.550;2023-04-01T15:43:43;7.40;;;4.20;;
16854;SDS011;8543;54.522;18.550;2023-04-01T16:13:30;6.80;;;3.20;;
16854;SDS011;8543;54.522;18.550;2023-04-01T16:18:54;7.10;;;3.30;;
16854;SDS011;8543;54.522;18.550;2023-04-01T16:21:57;6.60;;;2.80;;
16854;SDS011;8543;54.522;18.550;2023-04-01T16:24:33;5.00;;;2.90;;
16854;SDS011;8543;54.522;18.550;2023-04-01T16:37:54;7.70;;;3.70;;
16854;SDS011;8543;54.522;18.550;2023-04-01T16:40:37;5.10;;;2.90;;
16854;SDS011;8543;54.522;18.550;2023-04-01T16:47:14;8.40;;;3.20;;
16854;SDS011;8543;54.522;18.550;2023-04-01T16:49:52;5.30;;;2.60;;
16854;SDS011;8543;54.522;18.550;2023-04-01T16:52:36;8.20;;;3.20;;
16854;SDS011;8543;54.522;18.550;2023-04-01T16:55:18;6.00;;;3.00;;
16854;SDS011;8543;54.522;18.550;2023-04-01T17:02:49;5.00;;;2.90;;
16854;SDS011;8543;54.522;18.550;2023-04-01T17:05:17;6.80;;;2.90;;
16854;SDS011;8543;54.522;18.550;2023-04-01T17:18:40;5.70;;;2.80;;
16854;SDS011;8543;54.522;18.550;2023-04-01T17:32:51;8.50;;;3.30;;
16854;SDS011;8543;54.522;18.550;2023-04-01T17:40:41;7.00;;;3.10;;
16854;SDS011;8543;54.522;18.550;2023-04-01T17:46:10;4.20;;;2.70;;
16854;SDS011;8543;54.522;18.550;2023-04-01T17:48:47;6.50;;;2.80;;
16854;SDS011;8543;54.522;18.550;2023-04-01T17:56:45;5.00;;;2.70;;
16854;SDS011;8543;54.522;18.550;2023-04-01T18:02:02;7.10;;;2.50;;
16854;SDS011;8543;54.522;18.550;2023-04-01T18:10:17;7.80;;;3.00;;
16854;SDS011;8543;54.522;18.550;2023-04-01T18:24:01;6.10;;;3.00;;
16854;SDS011;8543;54.522;18.550;2023-04-01T18:26:32;6.90;;;2.50;;
16854;SDS011;8543;54.522;18.550;2023-04-01T18:37:55;6.30;;;2.90;;
16854;SDS011;8543;54.522;18.550;2023-04-01T18:40:45;7.40;;;2.80;;
16854;SDS011;8543;54.522;18.550;2023-04-01T18:46:49;5.90;;;2.30;;
16854;SDS011;8543;54.522;18.550;2023-04-01T18:52:22;5.10;;;2.70;;
16854;SDS011;8543;54.522;18.550;2023-04-01T19:00:13;6.60;;;2.40;;
16854;SDS011;8543;54.522;18.550;2023-04-01T19:02:41;4.30;;;2.40;;
16854;SDS011;8543;54.522;18.550;2023-04-01T19:05:14;6.40;;;2.70;;
16854;SDS011;8543;54.522;18.550;2023-04-01T19:07:45;5.30;;;2.90;;
16854;SDS011;8543;54.522;18.550;2023-04-01T19:15:58;6.30;;;2.90;;
16854;SDS011;8543;54.522;18.550;2023-04-01T19:43:50;3.80;;;2.40;;
16854;SDS011;8543;54.522;18.550;2023-04-01T19:46:32;4.70;;;2.70;;
16854;SDS011;8543;54.522;18.550;2023-04-01T19:49:20;5.40;;;2.60;;
16854;SDS011;8543;54.522;18.550;2023-04-01T19:52:00;3.80;;;2.40;;
16854;SDS011;8543;54.522;18.550;2023-04-01T19:57:16;5.90;;;2.60;;
16854;SDS011;8543;54.522;18.550;2023-04-01T20:13:52;4.60;;;2.40;;
16854;SDS011;8543;54.522;18.550;2023-04-01T20:22:00;4.50;;;2.30;;
16854;SDS011;8543;54.522;18.550;2023-04-01T20:24:34;5.20;;;2.30;;
16854;SDS011;8543;54.522;18.550;2023-04-01T20:27:10;4.10;;;2.40;;
16854;SDS011;8543;54.522;18.550;2023-04-01T20:33:02;4.30;;;2.00;;
16854;SDS011;8543;54.522;18.550;2023-04-01T20:47:01;4.80;;;2.10;;
16854;SDS011;8543;54.522;18.550;2023-04-01T21:03:10;4.80;;;2.60;;
16854;SDS011;8543;54.522;18.550;2023-04-01T21:19:33;4.00;;;2.60;;
16854;SDS011;8543;54.522;18.550;2023-04-01T21:41:45;4.30;;;2.50;;
16854;SDS011;8543;54.522;18.550;2023-04-01T21:48:09;3.60;;;2.20;;
16854;SDS011;8543;54.522;18.550;2023-04-01T22:09:45;5.60;;;2.50;;
16854;SDS011;8543;54.522;18.550;2023-04-01T22:12:30;6.50;;;2.60;;
16854;SDS011;8543;54.522;18.550;2023-04-01T22:15:01;5.30;;;2.40;;
16854;SDS011;8543;54.522;18.550;2023-04-01T22:17:58;4.10;;;2.40;;
16854;SDS011;8543;54.522;18.550;2023-04-01T22:20:46;5.60;;;2.20;;
16854;SDS011;8543;54.522;18.550;2023-04-01T22:31:39;4.50;;;2.30;;
16854;SDS011;8543;54.522;18.550;2023-04-01T22:37:12;5.40;;;2.60;;
16854;SDS011;8543;54.522;18.550;2023-04-01T22:55:53;5.90;;;2.50;;
16854;SDS011;8543;54.522;18.550;2023-04-01T22:58:26;5.90;;;2.10;;
16854;SDS011;8543;54.522;18.550;2023-04-01T23:01:34;4.10;;;2.10;;
16854;SDS011;8543;54.522;18.550;2023-04-01T23:03:54;4.30;;;2.10;;
16854;SDS011;8543;54.522;18.550;2023-04-01T23:06:26;3.00;;;1.70;;
16854;SDS011;8543;54.522;18.550;2023-04-01T23:09:01;4.20;;;2.00;;
16854;SDS011;8543;54.522;18.550;2023-04-01T23:11:57;5.20;;;1.90;;
16854;SDS011;8543;54.522;18.550;2023-04-01T23:14:29;4.10;;;2.10;;
16854;SDS011;8543;54.522;18.550;2023-04-01T23:35:50;2.70;;;1.50;;
16854;SDS011;8543;54.522;18.550;2023-04-01T23:38:17;5.20;;;1.90;;
16854;SDS011;8543;54.522;18.550;2023-04-01T23:40:44;6.30;;;2.00;;
16854;SDS011;8543;54.522;18.550;2023-04-01T23:43:21;5.00;;;2.10;;
16854;SDS011;8543;54.522;18.550;2023-04-01T23:45:48;3.80;;;1.70;;
16854;SDS011;8543;54.522;18.550;2023-04-01T23:48:16;5.40;;;1.80;;
16854;SDS011;8543;54.522;18.550;2023-04-01T23:50:43;5.00;;;1.50;;
16854;SDS011;8543;54.522;18.550;2023-04-01T23:55:46;2.50;;;1.60;;
16854;SDS011;8543;54.522;18.550;2023-04-01T23:58:57;4.60;;;1.60;;
